Weather at Burlington International Airport

Public forecast

Using degrees Fahrenheit for public forecast. Weather courtesy of forecast.io.

Current aviation weather report (METAR) for Burlington International Airport

Report is more than 6 hours old.

2022/11/14 14:54 (retrieved 2 years ago)

KBTV 141454Z 31013G19KT 10SM BKN048 01/M09 A3028 RMK AO2 SLP258 T00111094 51022

Aviation forecast (TAF) for Burlington International Airport

Forecast is more than 12 hours old.

2023/02/22 18:30 (retrieved 1 year ago)

TAF KBTV 221728Z 2218/2318 VRB05KT P6SM OVC100 FM230300 02005KT 4SM -SN BR OVC040 FM230500 04006KT 1/4SM +SN OVC020 FM231300 36005KT 3/4SM -SN BR OVC012 FM231500 33005KT P6SM VCSH OVC017